sensor_id;sensor_type;location;lat;lon;timestamp;pressure;altitude;pressure_sealevel;temperature;humidity
31538;BME280;18147;51.952;6.146;2022-09-09T00:04:05;100700.78;;;14.47;100.00
31538;BME280;18147;51.952;6.146;2022-09-09T00:09:13;100695.69;;;14.33;100.00
31538;BME280;18147;51.952;6.146;2022-09-09T00:11:48;100695.81;;;14.31;100.00
31538;BME280;18147;51.952;6.146;2022-09-09T00:14:39;100689.31;;;14.34;100.00
31538;BME280;18147;51.952;6.146;2022-09-09T00:17:38;100689.09;;;14.37;100.00
31538;BME280;18147;51.952;6.146;2022-09-09T00:23:30;100701.16;;;14.54;100.00
31538;BME280;18147;51.952;6.146;2022-09-09T00:26:14;100693.44;;;14.60;100.00
31538;BME280;18147;51.952;6.146;2022-09-09T00:28:50;100685.19;;;14.52;100.00
31538;BME280;18147;51.952;6.146;2022-09-09T00:31:23;100687.97;;;14.50;100.00
31538;BME280;18147;51.952;6.146;2022-09-09T00:33:50;100687.13;;;14.50;100.00
31538;BME280;18147;51.952;6.146;2022-09-09T00:36:22;100691.78;;;14.48;100.00
31538;BME280;18147;51.952;6.146;2022-09-09T00:38:56;100695.31;;;14.48;100.00
31538;BME280;18147;51.952;6.146;2022-09-09T00:44:02;100689.28;;;14.45;100.00
31538;BME280;18147;51.952;6.146;2022-09-09T00:49:43;100677.59;;;14.57;100.00
31538;BME280;18147;51.952;6.146;2022-09-09T00:52:36;100682.75;;;14.49;100.00
31538;BME280;18147;51.952;6.146;2022-09-09T00:55:16;100679.34;;;14.36;100.00
31538;BME280;18147;51.952;6.146;2022-09-09T00:57:48;100676.72;;;14.45;100.00
31538;BME280;18147;51.952;6.146;2022-09-09T01:10:50;100671.16;;;14.37;100.00
31538;BME280;18147;51.952;6.146;2022-09-09T01:13:32;100672.03;;;14.27;100.00
31538;BME280;18147;51.952;6.146;2022-09-09T01:16:04;100679.00;;;14.18;100.00
31538;BME280;18147;51.952;6.146;2022-09-09T01:18:38;100672.69;;;14.08;100.00
31538;BME280;18147;51.952;6.146;2022-09-09T01:26:24;100684.28;;;13.97;100.00
31538;BME280;18147;51.952;6.146;2022-09-09T01:28:53;100678.06;;;13.96;100.00
31538;BME280;18147;51.952;6.146;2022-09-09T01:31:32;100687.53;;;14.00;100.00
31538;BME280;18147;51.952;6.146;2022-09-09T01:33:58;100679.00;;;13.95;100.00
31538;BME280;18147;51.952;6.146;2022-09-09T01:36:31;100678.16;;;13.84;100.00
31538;BME280;18147;51.952;6.146;2022-09-09T01:39:00;100676.47;;;13.94;100.00
31538;BME280;18147;51.952;6.146;2022-09-09T01:41:26;100672.94;;;13.93;100.00
31538;BME280;18147;51.952;6.146;2022-09-09T01:44:19;100666.59;;;13.83;100.00
31538;BME280;18147;51.952;6.146;2022-09-09T01:46:45;100672.94;;;13.71;100.00
31538;BME280;18147;51.952;6.146;2022-09-09T01:49:16;100669.66;;;13.79;100.00
31538;BME280;18147;51.952;6.146;2022-09-09T01:51:42;100669.66;;;13.67;100.00
31538;BME280;18147;51.952;6.146;2022-09-09T01:54:11;100671.00;;;13.62;100.00
31538;BME280;18147;51.952;6.146;2022-09-09T01:56:40;100675.00;;;13.67;100.00
31538;BME280;18147;51.952;6.146;2022-09-09T01:59:21;100677.91;;;13.64;100.00
31538;BME280;18147;51.952;6.146;2022-09-09T02:04:47;100668.19;;;13.63;100.00
31538;BME280;18147;51.952;6.146;2022-09-09T02:07:42;100674.88;;;13.58;100.00
31538;BME280;18147;51.952;6.146;2022-09-09T02:10:32;100669.88;;;13.42;100.00
31538;BME280;18147;51.952;6.146;2022-09-09T02:13:14;100667.56;;;13.48;100.00
31538;BME280;18147;51.952;6.146;2022-09-09T02:18:32;100674.75;;;13.37;100.00
31538;BME280;18147;51.952;6.146;2022-09-09T02:20:59;100665.72;;;13.38;100.00
31538;BME280;18147;51.952;6.146;2022-09-09T02:23:26;100671.81;;;13.40;100.00
31538;BME280;18147;51.952;6.146;2022-09-09T02:25:56;100675.22;;;13.31;100.00
31538;BME280;18147;51.952;6.146;2022-09-09T02:28:26;100672.28;;;13.34;100.00
31538;BME280;18147;51.952;6.146;2022-09-09T02:30:54;100670.72;;;13.42;100.00
31538;BME280;18147;51.952;6.146;2022-09-09T02:33:26;100656.47;;;13.42;100.00
31538;BME280;18147;51.952;6.146;2022-09-09T02:35:53;100660.25;;;13.39;100.00
31538;BME280;18147;51.952;6.146;2022-09-09T02:38:26;100654.66;;;13.31;100.00
31538;BME280;18147;51.952;6.146;2022-09-09T02:40:59;100660.22;;;13.28;100.00
31538;BME280;18147;51.952;6.146;2022-09-09T02:43:24;100664.34;;;13.21;100.00
31538;BME280;18147;51.952;6.146;2022-09-09T02:45:57;100657.38;;;13.18;100.00
31538;BME280;18147;51.952;6.146;2022-09-09T02:48:42;100664.69;;;13.16;100.00
31538;BME280;18147;51.952;6.146;2022-09-09T02:51:24;100662.53;;;13.21;100.00
31538;BME280;18147;51.952;6.146;2022-09-09T02:56:49;100655.22;;;13.24;100.00
31538;BME280;18147;51.952;6.146;2022-09-09T02:59:17;100654.06;;;13.15;100.00
31538;BME280;18147;51.952;6.146;2022-09-09T03:01:43;100655.00;;;13.27;100.00
31538;BME280;18147;51.952;6.146;2022-09-09T03:04:09;100652.03;;;13.18;100.00
31538;BME280;18147;51.952;6.146;2022-09-09T03:06:35;100656.75;;;13.15;100.00
31538;BME280;18147;51.952;6.146;2022-09-09T03:09:11;100656.75;;;13.15;100.00
31538;BME280;18147;51.952;6.146;2022-09-09T03:11:37;100657.13;;;13.10;100.00
31538;BME280;18147;51.952;6.146;2022-09-09T03:14:04;100662.59;;;13.09;100.00
31538;BME280;18147;51.952;6.146;2022-09-09T03:16:31;100660.66;;;13.11;100.00
31538;BME280;18147;51.952;6.146;2022-09-09T03:18:58;100655.66;;;13.06;100.00
31538;BME280;18147;51.952;6.146;2022-09-09T03:21:24;100663.56;;;13.08;100.00
31538;BME280;18147;51.952;6.146;2022-09-09T03:23:50;100657.72;;;13.14;100.00
31538;BME280;18147;51.952;6.146;2022-09-09T03:26:16;100661.00;;;13.06;100.00
31538;BME280;18147;51.952;6.146;2022-09-09T03:28:44;100662.84;;;13.06;100.00
31538;BME280;18147;51.952;6.146;2022-09-09T03:31:10;100662.09;;;13.04;100.00
31538;BME280;18147;51.952;6.146;2022-09-09T03:33:39;100663.56;;;13.08;100.00
31538;BME280;18147;51.952;6.146;2022-09-09T03:36:06;100670.88;;;13.17;100.00
31538;BME280;18147;51.952;6.146;2022-09-09T03:38:33;100670.31;;;13.25;100.00
31538;BME280;18147;51.952;6.146;2022-09-09T03:41:00;100664.34;;;13.21;100.00
31538;BME280;18147;51.952;6.146;2022-09-09T03:43:27;100661.16;;;13.16;100.00
31538;BME280;18147;51.952;6.146;2022-09-09T03:45:53;100660.44;;;13.25;100.00
31538;BME280;18147;51.952;6.146;2022-09-09T03:48:23;100664.97;;;13.25;100.00
31538;BME280;18147;51.952;6.146;2022-09-09T03:50:52;100661.34;;;13.26;100.00
31538;BME280;18147;51.952;6.146;2022-09-09T03:53:21;100659.16;;;13.31;100.00
31538;BME280;18147;51.952;6.146;2022-09-09T03:55:49;100656.22;;;13.34;100.00
31538;BME280;18147;51.952;6.146;2022-09-09T03:58:16;100642.09;;;13.43;100.00
31538;BME280;18147;51.952;6.146;2022-09-09T04:01:18;100648.94;;;13.36;100.00
31538;BME280;18147;51.952;6.146;2022-09-09T04:03:44;100649.53;;;13.39;100.00
31538;BME280;18147;51.952;6.146;2022-09-09T04:06:13;100644.31;;;13.49;100.00
31538;BME280;18147;51.952;6.146;2022-09-09T04:08:42;100654.78;;;13.52;100.00
31538;BME280;18147;51.952;6.146;2022-09-09T04:11:08;100645.78;;;13.53;100.00
31538;BME280;18147;51.952;6.146;2022-09-09T04:13:36;100649.78;;;13.59;100.00
31538;BME280;18147;51.952;6.146;2022-09-09T04:16:04;100645.19;;;13.61;100.00
31538;BME280;18147;51.952;6.146;2022-09-09T04:18:31;100645.19;;;13.61;100.00
31538;BME280;18147;51.952;6.146;2022-09-09T04:20:57;100648.72;;;13.61;100.00
31538;BME280;18147;51.952;6.146;2022-09-09T04:23:26;100648.56;;;13.74;100.00
31538;BME280;18147;51.952;6.146;2022-09-09T04:25:55;100645.66;;;13.77;100.00
31538;BME280;18147;51.952;6.146;2022-09-09T04:28:23;100638.94;;;13.83;100.00
31538;BME280;18147;51.952;6.146;2022-09-09T04:30:49;100636.41;;;13.81;100.00
31538;BME280;18147;51.952;6.146;2022-09-09T04:33:16;100637.84;;;13.85;100.00
31538;BME280;18147;51.952;6.146;2022-09-09T04:35:47;100639.66;;;13.85;100.00
31538;BME280;18147;51.952;6.146;2022-09-09T04:38:15;100636.25;;;13.94;100.00
31538;BME280;18147;51.952;6.146;2022-09-09T04:40:46;100628.94;;;13.96;100.00
31538;BME280;18147;51.952;6.146;2022-09-09T04:43:12;100629.81;;;13.96;100.00
31538;BME280;18147;51.952;6.146;2022-09-09T04:45:39;100627.84;;;13.98;100.00
31538;BME280;18147;51.952;6.146;2022-09-09T04:48:07;100636.00;;;13.97;100.00
31538;BME280;18147;51.952;6.146;2022-09-09T04:50:33;100633.91;;;14.00;100.00
31538;BME280;18147;51.952;6.146;2022-09-09T04:53:03;100628.19;;;14.05;100.00
31538;BME280;18147;51.952;6.146;2022-09-09T04:55:30;100639.66;;;14.07;100.00
31538;BME280;18147;51.952;6.146;2022-09-09T04:57:56;100633.06;;;14.11;100.00
31538;BME280;18147;51.952;6.146;2022-09-09T05:00:24;100634.41;;;14.17;100.00
31538;BME280;18147;51.952;6.146;2022-09-09T05:02:50;100627.53;;;14.24;100.00
31538;BME280;18147;51.952;6.146;2022-09-09T05:05:17;100626.69;;;14.23;100.00
31538;BME280;18147;51.952;6.146;2022-09-09T05:07:45;100629.84;;;14.29;100.00
31538;BME280;18147;51.952;6.146;2022-09-09T05:10:12;100627.88;;;14.31;100.00
31538;BME280;18147;51.952;6.146;2022-09-09T05:12:39;100623.13;;;14.34;100.00
31538;BME280;18147;51.952;6.146;2022-09-09T05:15:05;100619.44;;;14.35;100.00
31538;BME280;18147;51.952;6.146;2022-09-09T05:17:30;100616.28;;;14.41;100.00
31538;BME280;18147;51.952;6.146;2022-09-09T05:19:56;100610.06;;;14.41;100.00
31538;BME280;18147;51.952;6.146;2022-09-09T05:22:22;100611.75;;;14.42;100.00
31538;BME280;18147;51.952;6.146;2022-09-09T05:24:50;100610.06;;;14.41;100.00
31538;BME280;18147;51.952;6.146;2022-09-09T05:27:18;100618.13;;;14.41;100.00
31538;BME280;18147;51.952;6.146;2022-09-09T05:29:46;100617.59;;;14.47;100.00
31538;BME280;18147;51.952;6.146;2022-09-09T05:32:12;100617.13;;;14.53;100.00
31538;BME280;18147;51.952;6.146;2022-09-09T05:34:40;100612.91;;;14.60;100.00
31538;BME280;18147;51.952;6.146;2022-09-09T05:37:06;100616.22;;;14.64;100.00
31538;BME280;18147;51.952;6.146;2022-09-09T05:39:33;100618.25;;;14.71;100.00
31538;BME280;18147;51.952;6.146;2022-09-09T05:41:59;100613.59;;;14.73;100.00
31538;BME280;18147;51.952;6.146;2022-09-09T05:44:25;100616.38;;;14.83;100.00
31538;BME280;18147;51.952;6.146;2022-09-09T05:46:53;100615.97;;;14.88;100.00
31538;BME280;18147;51.952;6.146;2022-09-09T05:49:20;100621.94;;;14.91;100.00
31538;BME280;18147;51.952;6.146;2022-09-09T05:51:47;100628.28;;;14.90;100.00
31538;BME280;18147;51.952;6.146;2022-09-09T05:54:14;100622.91;;;14.90;100.00
31538;BME280;18147;51.952;6.146;2022-09-09T05:56:43;100620.22;;;14.90;100.00
31538;BME280;18147;51.952;6.146;2022-09-09T05:59:10;100625.72;;;14.89;100.00
31538;BME280;18147;51.952;6.146;2022-09-09T06:01:37;100632.25;;;14.96;100.00
31538;BME280;18147;51.952;6.146;2022-09-09T06:04:08;100623.97;;;14.99;100.00
31538;BME280;18147;51.952;6.146;2022-09-09T06:06:37;100624.56;;;15.02;100.00
31538;BME280;18147;51.952;6.146;2022-09-09T06:09:10;100630.63;;;15.05;100.00
31538;BME280;18147;51.952;6.146;2022-09-09T06:11:38;100633.06;;;15.08;100.00
31538;BME280;18147;51.952;6.146;2022-09-09T06:14:04;100635.94;;;15.16;100.00
31538;BME280;18147;51.952;6.146;2022-09-09T06:16:31;100640.59;;;15.14;100.00
31538;BME280;18147;51.952;6.146;2022-09-09T06:19:01;100633.19;;;15.27;100.00
31538;BME280;18147;51.952;6.146;2022-09-09T06:21:31;100638.09;;;15.43;100.00
31538;BME280;18147;51.952;6.146;2022-09-09T06:23:59;100630.13;;;15.62;100.00
31538;BME280;18147;51.952;6.146;2022-09-09T06:26:36;100633.63;;;15.84;100.00
31538;BME280;18147;51.952;6.146;2022-09-09T06:29:04;100624.75;;;15.93;100.00
31538;BME280;18147;51.952;6.146;2022-09-09T06:31:32;100630.41;;;15.99;100.00
31538;BME280;18147;51.952;6.146;2022-09-09T06:34:07;100620.53;;;16.10;100.00
31538;BME280;18147;51.952;6.146;2022-09-09T06:36:36;100622.22;;;16.11;100.00
31538;BME280;18147;51.952;6.146;2022-09-09T06:39:03;100633.34;;;16.37;100.00
31538;BME280;18147;51.952;6.146;2022-09-09T06:41:31;100625.59;;;16.72;100.00
31538;BME280;18147;51.952;6.146;2022-09-09T06:43:59;100629.78;;;16.55;100.00
31538;BME280;18147;51.952;6.146;2022-09-09T06:46:32;100629.78;;;16.46;100.00
31538;BME280;18147;51.952;6.146;2022-09-09T06:48:59;100627.09;;;16.46;100.00
31538;BME280;18147;51.952;6.146;2022-09-09T06:51:33;100631.75;;;16.34;100.00
31538;BME280;18147;51.952;6.146;2022-09-09T06:54:02;100626.94;;;16.28;100.00
31538;BME280;18147;51.952;6.146;2022-09-09T06:56:31;100629.47;;;16.20;100.00
31538;BME280;18147;51.952;6.146;2022-09-09T06:58:59;100633.72;;;16.13;100.00
31538;BME280;18147;51.952;6.146;2022-09-09T07:01:30;100633.56;;;16.14;100.00
31538;BME280;18147;51.952;6.146;2022-09-09T07:03:59;100629.69;;;16.67;100.00
31538;BME280;18147;51.952;6.146;2022-09-09T07:06:28;100635.63;;;16.90;100.00
31538;BME280;18147;51.952;6.146;2022-09-09T07:08:57;100633.06;;;17.17;100.00
31538;BME280;18147;51.952;6.146;2022-09-09T07:11:28;100628.09;;;17.22;100.00
31538;BME280;18147;51.952;6.146;2022-09-09T07:13:56;100624.50;;;17.22;100.00
31538;BME280;18147;51.952;6.146;2022-09-09T07:16:22;100625.31;;;17.42;100.00
31538;BME280;18147;51.952;6.146;2022-09-09T07:18:52;100632.53;;;17.41;100.00
31538;BME280;18147;51.952;6.146;2022-09-09T07:21:23;100628.31;;;17.39;100.00
31538;BME280;18147;51.952;6.146;2022-09-09T07:23:50;100637.84;;;17.33;100.00
31538;BME280;18147;51.952;6.146;2022-09-09T07:26:18;100630.22;;;17.09;100.00
31538;BME280;18147;51.952;6.146;2022-09-09T07:28:46;100631.50;;;16.95;100.00
31538;BME280;18147;51.952;6.146;2022-09-09T07:31:19;100629.63;;;17.15;100.00
31538;BME280;18147;51.952;6.146;2022-09-09T07:33:46;100630.44;;;17.35;100.00
31538;BME280;18147;51.952;6.146;2022-09-09T07:36:26;100626.69;;;17.55;100.00
31538;BME280;18147;51.952;6.146;2022-09-09T07:38:55;100642.69;;;17.67;100.00
31538;BME280;18147;51.952;6.146;2022-09-09T07:41:26;100642.16;;;17.73;100.00
31538;BME280;18147;51.952;6.146;2022-09-09T07:43:53;100639.41;;;17.82;100.00
31538;BME280;18147;51.952;6.146;2022-09-09T07:46:24;100628.34;;;18.03;100.00
31538;BME280;18147;51.952;6.146;2022-09-09T07:48:54;100641.81;;;18.13;100.00
31538;BME280;18147;51.952;6.146;2022-09-09T07:51:35;100645.88;;;17.90;100.00
31538;BME280;18147;51.952;6.146;2022-09-09T07:54:07;100636.59;;;18.02;100.00
31538;BME280;18147;51.952;6.146;2022-09-09T07:56:36;100642.31;;;18.17;100.00
31538;BME280;18147;51.952;6.146;2022-09-09T07:59:03;100644.56;;;18.21;100.00
31538;BME280;18147;51.952;6.146;2022-09-09T08:01:41;100644.09;;;18.89;100.00
31538;BME280;18147;51.952;6.146;2022-09-09T08:04:10;100645.94;;;19.32;100.00
31538;BME280;18147;51.952;6.146;2022-09-09T08:06:41;100645.09;;;19.06;100.00
31538;BME280;18147;51.952;6.146;2022-09-09T08:09:09;100648.38;;;19.18;100.00
31538;BME280;18147;51.952;6.146;2022-09-09T08:11:35;100648.88;;;19.65;100.00
31538;BME280;18147;51.952;6.146;2022-09-09T08:14:02;100650.09;;;20.05;100.00
31538;BME280;18147;51.952;6.146;2022-09-09T08:16:31;100646.72;;;20.11;97.62
31538;BME280;18147;51.952;6.146;2022-09-09T08:18:59;100643.88;;;20.95;96.18
31538;BME280;18147;51.952;6.146;2022-09-09T08:21:29;100644.00;;;21.18;91.09
31538;BME280;18147;51.952;6.146;2022-09-09T08:23:58;100641.97;;;20.72;90.94
31538;BME280;18147;51.952;6.146;2022-09-09T08:26:26;100649.94;;;20.65;90.62
31538;BME280;18147;51.952;6.146;2022-09-09T08:28:55;100648.28;;;21.05;88.98
31538;BME280;18147;51.952;6.146;2022-09-09T08:31:31;100650.13;;;20.72;93.38
31538;BME280;18147;51.952;6.146;2022-09-09T08:33:58;100654.06;;;20.27;93.46
31538;BME280;18147;51.952;6.146;2022-09-09T08:36:27;100657.31;;;19.62;94.22
31538;BME280;18147;51.952;6.146;2022-09-09T08:38:54;100656.47;;;19.18;97.01
31538;BME280;18147;51.952;6.146;2022-09-09T08:44:08;100655.34;;;19.46;95.51
31538;BME280;18147;51.952;6.146;2022-09-09T08:52:01;100658.25;;;19.27;96.82
31538;BME280;18147;51.952;6.146;2022-09-09T08:54:33;100654.59;;;18.92;95.56
31538;BME280;18147;51.952;6.146;2022-09-09T08:57:00;100662.00;;;18.90;96.90
31538;BME280;18147;51.952;6.146;2022-09-09T08:59:25;100665.41;;;19.36;96.35
31538;BME280;18147;51.952;6.146;2022-09-09T09:02:14;100667.47;;;19.16;97.00
31538;BME280;18147;51.952;6.146;2022-09-09T09:05:19;100658.25;;;18.83;96.88
31538;BME280;18147;51.952;6.146;2022-09-09T09:08:02;100663.78;;;18.81;98.30
31538;BME280;18147;51.952;6.146;2022-09-09T09:10:49;100668.28;;;18.73;99.83
31538;BME280;18147;51.952;6.146;2022-09-09T09:13:23;100665.19;;;18.85;99.00
31538;BME280;18147;51.952;6.146;2022-09-09T09:16:01;100665.16;;;18.68;99.16
31538;BME280;18147;51.952;6.146;2022-09-09T09:18:28;100672.16;;;18.43;100.00
31538;BME280;18147;51.952;6.146;2022-09-09T09:21:03;100672.84;;;18.17;100.00
31538;BME280;18147;51.952;6.146;2022-09-09T09:23:38;100673.19;;;18.59;99.64
31538;BME280;18147;51.952;6.146;2022-09-09T09:26:09;100677.53;;;18.70;99.86
31538;BME280;18147;51.952;6.146;2022-09-09T09:28:39;100675.69;;;19.32;96.04
31538;BME280;18147;51.952;6.146;2022-09-09T09:31:12;100670.78;;;19.28;93.96
31538;BME280;18147;51.952;6.146;2022-09-09T09:33:51;100676.47;;;19.69;94.63
31538;BME280;18147;51.952;6.146;2022-09-09T09:36:24;100661.22;;;20.44;92.44
31538;BME280;18147;51.952;6.146;2022-09-09T09:39:01;100667.72;;;20.59;89.32
31538;BME280;18147;51.952;6.146;2022-09-09T09:41:31;100664.88;;;20.69;85.02
31538;BME280;18147;51.952;6.146;2022-09-09T09:43:58;100657.97;;;20.32;87.99
31538;BME280;18147;51.952;6.146;2022-09-09T09:46:27;100673.56;;;19.96;88.52
31538;BME280;18147;51.952;6.146;2022-09-09T09:49:05;100666.94;;;19.90;88.57
31538;BME280;18147;51.952;6.146;2022-09-09T09:51:34;100671.50;;;19.90;88.33
31538;BME280;18147;51.952;6.146;2022-09-09T09:56:40;100661.94;;;20.54;84.37
31538;BME280;18147;51.952;6.146;2022-09-09T09:59:23;100663.50;;;20.73;86.27
31538;BME280;18147;51.952;6.146;2022-09-09T10:04:37;100667.75;;;21.33;82.46
31538;BME280;18147;51.952;6.146;2022-09-09T10:07:18;100667.41;;;21.19;81.41
31538;BME280;18147;51.952;6.146;2022-09-09T10:09:44;100666.06;;;21.07;81.40
31538;BME280;18147;51.952;6.146;2022-09-09T10:14:51;100654.69;;;21.28;80.63
31538;BME280;18147;51.952;6.146;2022-09-09T10:20:36;100656.41;;;20.88;80.33
31538;BME280;18147;51.952;6.146;2022-09-09T10:23:21;100655.88;;;20.93;83.58
31538;BME280;18147;51.952;6.146;2022-09-09T10:34:40;100673.78;;;19.69;88.46
31538;BME280;18147;51.952;6.146;2022-09-09T10:40:42;100673.56;;;19.96;86.98
31538;BME280;18147;51.952;6.146;2022-09-09T10:42:51;100666.66;;;19.67;88.38
31538;BME280;18147;51.952;6.146;2022-09-09T10:45:23;100665.22;;;19.11;89.85
31538;BME280;18147;51.952;6.146;2022-09-09T10:48:19;100666.56;;;18.89;90.70
31538;BME280;18147;51.952;6.146;2022-09-09T10:53:53;100674.25;;;19.02;89.00
31538;BME280;18147;51.952;6.146;2022-09-09T10:56:23;100674.69;;;18.89;91.87
31538;BME280;18147;51.952;6.146;2022-09-09T10:59:02;100668.34;;;18.81;91.68
31538;BME280;18147;51.952;6.146;2022-09-09T11:01:34;100667.50;;;18.80;90.95
31538;BME280;18147;51.952;6.146;2022-09-09T11:04:32;100666.34;;;18.83;94.30
31538;BME280;18147;51.952;6.146;2022-09-09T11:07:02;100668.97;;;19.36;90.82
31538;BME280;18147;51.952;6.146;2022-09-09T11:09:33;100665.50;;;20.04;86.05
31538;BME280;18147;51.952;6.146;2022-09-09T11:12:02;100650.59;;;20.51;86.08
31538;BME280;18147;51.952;6.146;2022-09-09T11:14:33;100661.13;;;20.70;83.48
31538;BME280;18147;51.952;6.146;2022-09-09T11:17:04;100657.19;;;20.48;81.39
31538;BME280;18147;51.952;6.146;2022-09-09T11:22:08;100664.69;;;20.20;83.19
31538;BME280;18147;51.952;6.146;2022-09-09T11:24:41;100655.03;;;20.09;85.65
31538;BME280;18147;51.952;6.146;2022-09-09T11:27:19;100660.94;;;19.71;87.32
31538;BME280;18147;51.952;6.146;2022-09-09T11:30:11;100675.66;;;19.50;88.21
31538;BME280;18147;51.952;6.146;2022-09-09T11:38:47;100670.25;;;18.53;99.58
31538;BME280;18147;51.952;6.146;2022-09-09T11:41:17;100672.56;;;18.66;100.00
31538;BME280;18147;51.952;6.146;2022-09-09T11:43:48;100667.22;;;18.56;98.74
31538;BME280;18147;51.952;6.146;2022-09-09T11:46:18;100674.84;;;18.70;99.25
31538;BME280;18147;51.952;6.146;2022-09-09T11:48:56;100680.09;;;18.62;100.00
31538;BME280;18147;51.952;6.146;2022-09-09T11:53:56;100687.75;;;18.21;100.00
31538;BME280;18147;51.952;6.146;2022-09-09T11:56:41;100690.19;;;18.42;100.00
31538;BME280;18147;51.952;6.146;2022-09-09T11:59:26;100692.81;;;18.79;100.00
31538;BME280;18147;51.952;6.146;2022-09-09T12:02:18;100693.25;;;19.28;100.00
31538;BME280;18147;51.952;6.146;2022-09-09T12:05:10;100693.38;;;18.83;100.00
31538;BME280;18147;51.952;6.146;2022-09-09T12:07:48;100688.72;;;18.75;100.00
31538;BME280;18147;51.952;6.146;2022-09-09T12:10:33;100681.38;;;18.68;100.00
31538;BME280;18147;51.952;6.146;2022-09-09T12:13:17;100690.72;;;19.09;100.00
31538;BME280;18147;51.952;6.146;2022-09-09T12:15:54;100684.22;;;19.20;100.00
31538;BME280;18147;51.952;6.146;2022-09-09T12:18:45;100683.59;;;19.26;100.00
31538;BME280;18147;51.952;6.146;2022-09-09T12:21:33;100682.00;;;19.41;100.00
31538;BME280;18147;51.952;6.146;2022-09-09T12:24:10;100679.13;;;19.42;100.00
31538;BME280;18147;51.952;6.146;2022-09-09T12:26:43;100679.56;;;19.30;100.00
31538;BME280;18147;51.952;6.146;2022-09-09T12:32:12;100685.00;;;19.12;100.00
31538;BME280;18147;51.952;6.146;2022-09-09T12:34:57;100668.00;;;18.66;100.00
31538;BME280;18147;51.952;6.146;2022-09-09T12:40:26;100677.38;;;18.89;100.00
31538;BME280;18147;51.952;6.146;2022-09-09T12:42:52;100670.97;;;19.08;100.00
31538;BME280;18147;51.952;6.146;2022-09-09T12:45:23;100676.84;;;18.86;100.00
31538;BME280;18147;51.952;6.146;2022-09-09T12:48:05;100676.28;;;19.18;100.00
31538;BME280;18147;51.952;6.146;2022-09-09T12:50:35;100668.06;;;19.54;100.00
31538;BME280;18147;51.952;6.146;2022-09-09T12:53:07;100667.44;;;19.34;100.00
31538;BME280;18147;51.952;6.146;2022-09-09T12:55:36;100666.97;;;19.38;100.00
31538;BME280;18147;51.952;6.146;2022-09-09T12:58:04;100665.00;;;19.49;100.00
31538;BME280;18147;51.952;6.146;2022-09-09T13:00:32;100654.91;;;20.27;100.00
31538;BME280;18147;51.952;6.146;2022-09-09T13:03:14;100647.75;;;20.18;100.00
31538;BME280;18147;51.952;6.146;2022-09-09T13:05:41;100647.13;;;20.24;100.00
31538;BME280;18147;51.952;6.146;2022-09-09T13:08:11;100657.53;;;19.69;100.00
31538;BME280;18147;51.952;6.146;2022-09-09T13:13:14;100651.72;;;19.11;100.00
31538;BME280;18147;51.952;6.146;2022-09-09T13:15:49;100644.88;;;18.81;100.00
31538;BME280;18147;51.952;6.146;2022-09-09T13:18:15;100640.50;;;19.24;100.00
31538;BME280;18147;51.952;6.146;2022-09-09T13:20:47;100643.97;;;19.60;100.00
31538;BME280;18147;51.952;6.146;2022-09-09T13:23:14;100656.84;;;20.01;99.43
31538;BME280;18147;51.952;6.146;2022-09-09T13:25:40;100642.81;;;20.56;98.06
31538;BME280;18147;51.952;6.146;2022-09-09T13:28:20;100635.97;;;20.35;99.78
31538;BME280;18147;51.952;6.146;2022-09-09T13:30:56;100636.00;;;20.43;96.98
31538;BME280;18147;51.952;6.146;2022-09-09T13:33:38;100629.38;;;20.46;96.63
31538;BME280;18147;51.952;6.146;2022-09-09T13:36:09;100625.81;;;20.29;97.93
31538;BME280;18147;51.952;6.146;2022-09-09T13:41:22;100625.72;;;20.05;98.87
31538;BME280;18147;51.952;6.146;2022-09-09T13:43:49;100630.03;;;19.81;99.36
31538;BME280;18147;51.952;6.146;2022-09-09T13:46:38;100617.56;;;19.97;100.00
31538;BME280;18147;51.952;6.146;2022-09-09T13:52:04;100621.16;;;20.64;94.65
31538;BME280;18147;51.952;6.146;2022-09-09T13:54:31;100627.75;;;20.69;96.09
31538;BME280;18147;51.952;6.146;2022-09-09T13:56:56;100622.19;;;20.95;93.21
31538;BME280;18147;51.952;6.146;2022-09-09T13:59:22;100617.44;;;20.89;92.89
31538;BME280;18147;51.952;6.146;2022-09-09T14:01:49;100621.16;;;20.80;92.45
31538;BME280;18147;51.952;6.146;2022-09-09T14:04:18;100619.91;;;20.42;96.09
31538;BME280;18147;51.952;6.146;2022-09-09T14:06:46;100624.13;;;19.86;98.17
31538;BME280;18147;51.952;6.146;2022-09-09T14:09:15;100632.84;;;19.63;100.00
31538;BME280;18147;51.952;6.146;2022-09-09T14:11:41;100648.50;;;19.08;100.00
31538;BME280;18147;51.952;6.146;2022-09-09T14:14:07;100644.88;;;18.81;100.00
31538;BME280;18147;51.952;6.146;2022-09-09T14:16:33;100647.84;;;18.60;100.00
31538;BME280;18147;51.952;6.146;2022-09-09T14:18:58;100652.38;;;18.42;100.00
31538;BME280;18147;51.952;6.146;2022-09-09T14:21:25;100652.28;;;18.16;100.00
31538;BME280;18147;51.952;6.146;2022-09-09T14:23:51;100648.50;;;18.09;100.00
31538;BME280;18147;51.952;6.146;2022-09-09T14:26:18;100635.91;;;18.00;100.00
31538;BME280;18147;51.952;6.146;2022-09-09T14:28:46;100644.84;;;17.73;100.00
31538;BME280;18147;51.952;6.146;2022-09-09T14:31:12;100650.28;;;17.91;100.00
31538;BME280;18147;51.952;6.146;2022-09-09T14:33:38;100645.22;;;18.51;100.00
31538;BME280;18147;51.952;6.146;2022-09-09T14:36:04;100639.94;;;18.95;100.00
31538;BME280;18147;51.952;6.146;2022-09-09T14:38:32;100646.91;;;19.23;100.00
31538;BME280;18147;51.952;6.146;2022-09-09T14:40:59;100641.44;;;19.15;100.00
31538;BME280;18147;51.952;6.146;2022-09-09T14:43:24;100629.13;;;19.47;100.00